Achilles, Virginia
Current Conditions -  °F | °C
As of 9:33 PM on Sunday 23 Nov 2014 (Local Time) from KPHF Reporting Station
Overcast Overcast  
Wind Chill: 63°   Ceiling: 2800
Heat Index: 63°   Visibility: 10mi
Dew Point: 56°   Wind: 7mph
Humidity: 78%   Direction: 130°SE
Pressure: 29.94"   Gusts: NA
Location:  37.28°N, 76.44°W
Report Text: KPHF 240233Z 13006KT 10SM OVC028 17/13 A2994 RMK AO2 T01720133 $
Loading
Personal Weather Stations






























Interactive Weather Map New forecast layout! Learn more

10-Day Weather Forecast

Advertisements
Track Severe Weather on mobile